sensor_id;sensor_type;location;lat;lon;timestamp;pressure;altitude;pressure_sealevel;temperature;humidity
33506;BME280;19843;51.040;13.782;2023-01-28T00:01:12;101187.34;;;1.83;100.00
33506;BME280;19843;51.040;13.782;2023-01-28T00:03:40;101187.31;;;1.86;100.00
33506;BME280;19843;51.040;13.782;2023-01-28T00:06:12;101185.72;;;1.76;100.00
33506;BME280;19843;51.040;13.782;2023-01-28T00:08:40;101186.63;;;1.75;100.00
33506;BME280;19843;51.040;13.782;2023-01-28T00:11:10;101180.34;;;1.82;100.00
33506;BME280;19843;51.040;13.782;2023-01-28T00:13:39;101184.00;;;1.75;100.00
33506;BME280;19843;51.040;13.782;2023-01-28T00:16:07;101175.91;;;1.84;100.00
33506;BME280;19843;51.040;13.782;2023-01-28T00:18:35;101183.00;;;1.79;100.00
33506;BME280;19843;51.040;13.782;2023-01-28T00:21:03;101182.06;;;1.83;100.00
33506;BME280;19843;51.040;13.782;2023-01-28T00:23:32;101191.19;;;1.67;100.00
33506;BME280;19843;51.040;13.782;2023-01-28T00:26:02;101189.44;;;1.66;100.00
33506;BME280;19843;51.040;13.782;2023-01-28T00:28:30;101193.06;;;1.60;100.00
33506;BME280;19843;51.040;13.782;2023-01-28T00:30:57;101180.88;;;1.52;100.00
33506;BME280;19843;51.040;13.782;2023-01-28T00:33:25;101187.78;;;1.59;100.00
33506;BME280;19843;51.040;13.782;2023-01-28T00:35:57;101180.69;;;1.61;100.00
33506;BME280;19843;51.040;13.782;2023-01-28T00:38:25;101182.56;;;1.56;100.00
33506;BME280;19843;51.040;13.782;2023-01-28T00:40:54;101187.00;;;1.54;100.00
33506;BME280;19843;51.040;13.782;2023-01-28T00:43:22;101182.72;;;1.48;100.00
33506;BME280;19843;51.040;13.782;2023-01-28T00:45:50;101187.91;;;1.53;100.00
33506;BME280;19843;51.040;13.782;2023-01-28T00:48:17;101188.22;;;1.34;100.00
33506;BME280;19843;51.040;13.782;2023-01-28T00:50:44;101194.31;;;1.38;100.00
33506;BME280;19843;51.040;13.782;2023-01-28T00:53:12;101196.09;;;1.37;100.00
33506;BME280;19843;51.040;13.782;2023-01-28T00:55:39;101189.81;;;1.44;99.91
33506;BME280;19843;51.040;13.782;2023-01-28T00:58:08;101190.75;;;1.40;99.22
33506;BME280;19843;51.040;13.782;2023-01-28T01:00:35;101194.25;;;1.42;98.63
33506;BME280;19843;51.040;13.782;2023-01-28T01:03:03;101190.59;;;1.50;97.46
33506;BME280;19843;51.040;13.782;2023-01-28T01:05:30;101190.59;;;1.50;97.07
33506;BME280;19843;51.040;13.782;2023-01-28T01:07:59;101187.00;;;1.54;96.42
33506;BME280;19843;51.040;13.782;2023-01-28T01:10:26;101183.41;;;1.59;96.07
33506;BME280;19843;51.040;13.782;2023-01-28T01:12:54;101186.91;;;1.58;95.72
33506;BME280;19843;51.040;13.782;2023-01-28T01:15:25;101186.91;;;1.58;95.61
33506;BME280;19843;51.040;13.782;2023-01-28T01:17:52;101193.28;;;1.46;95.84
33506;BME280;19843;51.040;13.782;2023-01-28T01:20:22;101199.44;;;1.47;95.54
33506;BME280;19843;51.040;13.782;2023-01-28T01:22:50;101191.44;;;1.52;95.38
33506;BME280;19843;51.040;13.782;2023-01-28T01:25:18;101186.28;;;1.45;95.63
33506;BME280;19843;51.040;13.782;2023-01-28T01:27:47;101195.19;;;1.38;95.21
33506;BME280;19843;51.040;13.782;2023-01-28T01:30:15;101197.59;;;1.52;95.51
33506;BME280;19843;51.040;13.782;2023-01-28T01:32:44;101195.94;;;1.48;95.30
33506;BME280;19843;51.040;13.782;2023-01-28T01:35:11;101200.28;;;1.51;95.05
33506;BME280;19843;51.040;13.782;2023-01-28T01:37:42;101202.13;;;1.45;95.00
33506;BME280;19843;51.040;13.782;2023-01-28T01:40:11;101200.34;;;1.46;95.11
33506;BME280;19843;51.040;13.782;2023-01-28T01:42:38;101208.38;;;1.41;95.70
33506;BME280;19843;51.040;13.782;2023-01-28T01:45:07;101203.03;;;1.44;95.56
33506;BME280;19843;51.040;13.782;2023-01-28T01:47:45;101210.16;;;1.38;95.46
33506;BME280;19843;51.040;13.782;2023-01-28T01:50:21;101200.50;;;1.37;95.94
33506;BME280;19843;51.040;13.782;2023-01-28T01:52:52;101204.97;;;1.33;96.37
33506;BME280;19843;51.040;13.782;2023-01-28T01:55:23;101200.53;;;1.35;95.81
33506;BME280;19843;51.040;13.782;2023-01-28T01:57:54;101209.41;;;1.31;94.88
33506;BME280;19843;51.040;13.782;2023-01-28T02:00:23;101204.13;;;1.31;94.76
33506;BME280;19843;51.040;13.782;2023-01-28T02:02:52;101201.38;;;1.37;94.32
33506;BME280;19843;51.040;13.782;2023-01-28T02:05:21;101206.81;;;1.28;94.47
33506;BME280;19843;51.040;13.782;2023-01-28T02:07:50;101198.94;;;1.25;95.12
33506;BME280;19843;51.040;13.782;2023-01-28T02:10:21;101198.69;;;1.40;94.90
33506;BME280;19843;51.040;13.782;2023-01-28T02:12:52;101197.88;;;1.37;94.16
33506;BME280;19843;51.040;13.782;2023-01-28T02:15:24;101196.19;;;1.31;93.32
33506;BME280;19843;51.040;13.782;2023-01-28T02:17:53;101197.00;;;1.36;93.95
33506;BME280;19843;51.040;13.782;2023-01-28T02:20:25;101197.78;;;1.41;93.75
33506;BME280;19843;51.040;13.782;2023-01-28T02:23:25;101200.44;;;1.41;92.31
33506;BME280;19843;51.040;13.782;2023-01-28T02:26:21;101201.22;;;1.46;92.63
33506;BME280;19843;51.040;13.782;2023-01-28T02:28:59;101194.91;;;1.57;92.29
33506;BME280;19843;51.040;13.782;2023-01-28T02:31:34;101208.94;;;1.59;91.84
33506;BME280;19843;51.040;13.782;2023-01-28T02:34:10;101209.06;;;1.53;92.51
33506;BME280;19843;51.040;13.782;2023-01-28T02:36:41;101203.56;;;1.65;92.60
33506;BME280;19843;51.040;13.782;2023-01-28T02:39:13;101209.91;;;1.55;92.05
33506;BME280;19843;51.040;13.782;2023-01-28T02:41:46;101211.56;;;1.59;91.85
33506;BME280;19843;51.040;13.782;2023-01-28T02:44:16;101210.75;;;1.57;90.96
33506;BME280;19843;51.040;13.782;2023-01-28T02:46:44;101216.88;;;1.59;91.39
33506;BME280;19843;51.040;13.782;2023-01-28T02:49:34;101216.09;;;1.52;92.14
33506;BME280;19843;51.040;13.782;2023-01-28T02:52:13;101214.22;;;1.59;92.48
33506;BME280;19843;51.040;13.782;2023-01-28T02:54:50;101218.69;;;1.57;92.53
33506;BME280;19843;51.040;13.782;2023-01-28T02:57:30;101219.47;;;1.62;92.20
33506;BME280;19843;51.040;13.782;2023-01-28T03:00:09;101209.09;;;1.50;92.40
33506;BME280;19843;51.040;13.782;2023-01-28T03:02:43;101224.09;;;1.48;92.87
33506;BME280;19843;51.040;13.782;2023-01-28T03:05:16;101220.66;;;1.44;93.16
33506;BME280;19843;51.040;13.782;2023-01-28T03:07:48;101211.88;;;1.42;93.33
33506;BME280;19843;51.040;13.782;2023-01-28T03:10:19;101216.41;;;1.34;93.62
33506;BME280;19843;51.040;13.782;2023-01-28T03:12:49;101213.56;;;1.46;93.78
33506;BME280;19843;51.040;13.782;2023-01-28T03:15:38;101222.53;;;1.36;94.18
33506;BME280;19843;51.040;13.782;2023-01-28T03:18:28;101218.94;;;1.40;94.96
33506;BME280;19843;51.040;13.782;2023-01-28T03:21:18;101226.16;;;1.30;94.94
33506;BME280;19843;51.040;13.782;2023-01-28T03:24:08;101218.94;;;1.40;94.64
33506;BME280;19843;51.040;13.782;2023-01-28T03:26:57;101234.81;;;1.40;94.57
33506;BME280;19843;51.040;13.782;2023-01-28T03:29:45;101231.53;;;1.24;94.94
33506;BME280;19843;51.040;13.782;2023-01-28T03:32:33;101229.03;;;1.16;94.14
33506;BME280;19843;51.040;13.782;2023-01-28T03:35:21;101237.81;;;1.17;94.27
33506;BME280;19843;51.040;13.782;2023-01-28T03:38:08;101239.59;;;1.16;94.64
33506;BME280;19843;51.040;13.782;2023-01-28T03:40:50;101233.25;;;1.28;93.64
33506;BME280;19843;51.040;13.782;2023-01-28T03:43:18;101248.31;;;1.20;93.56
33506;BME280;19843;51.040;13.782;2023-01-28T03:45:45;101236.88;;;1.19;93.80
33506;BME280;19843;51.040;13.782;2023-01-28T03:48:17;101243.75;;;1.31;94.02
33506;BME280;19843;51.040;13.782;2023-01-28T03:50:45;101244.81;;;1.21;94.30
33506;BME280;19843;51.040;13.782;2023-01-28T03:53:13;101251.78;;;1.25;94.32
33506;BME280;19843;51.040;13.782;2023-01-28T03:55:43;101249.31;;;1.11;94.11
33506;BME280;19843;51.040;13.782;2023-01-28T03:58:12;101250.16;;;1.16;94.22
33506;BME280;19843;51.040;13.782;2023-01-28T04:00:40;101248.50;;;1.08;93.37
33506;BME280;19843;51.040;13.782;2023-01-28T04:03:08;101251.03;;;1.15;93.38
33506;BME280;19843;51.040;13.782;2023-01-28T04:05:42;101252.94;;;1.04;93.58
33506;BME280;19843;51.040;13.782;2023-01-28T04:08:11;101254.84;;;0.94;93.85
33506;BME280;19843;51.040;13.782;2023-01-28T04:10:39;101253.88;;;1.01;93.81
33506;BME280;19843;51.040;13.782;2023-01-28T04:13:06;101261.06;;;0.93;94.19
33506;BME280;19843;51.040;13.782;2023-01-28T04:15:35;101259.28;;;0.92;94.33
33506;BME280;19843;51.040;13.782;2023-01-28T04:18:03;101261.91;;;0.94;94.01
33506;BME280;19843;51.040;13.782;2023-01-28T04:20:30;101261.91;;;0.94;93.89
33506;BME280;19843;51.040;13.782;2023-01-28T04:22:59;101265.22;;;1.08;93.51
33506;BME280;19843;51.040;13.782;2023-01-28T04:25:26;101257.31;;;1.07;93.23
33506;BME280;19843;51.040;13.782;2023-01-28T04:27:54;101258.09;;;1.16;93.75
33506;BME280;19843;51.040;13.782;2023-01-28T04:30:22;101268.25;;;0.79;93.88
33506;BME280;19843;51.040;13.782;2023-01-28T04:32:49;101265.78;;;0.65;94.01
33506;BME280;19843;51.040;13.782;2023-01-28T04:35:16;101266.81;;;0.53;93.50
33506;BME280;19843;51.040;13.782;2023-01-28T04:37:44;101267.81;;;0.43;92.50
33506;BME280;19843;51.040;13.782;2023-01-28T04:40:13;101275.66;;;0.51;91.76
33506;BME280;19843;51.040;13.782;2023-01-28T04:42:40;101269.41;;;0.58;90.85
33506;BME280;19843;51.040;13.782;2023-01-28T04:45:08;101281.03;;;0.40;89.93
33506;BME280;19843;51.040;13.782;2023-01-28T04:47:36;101283.84;;;0.28;89.12
33506;BME280;19843;51.040;13.782;2023-01-28T04:50:04;101298.16;;;-0.01;88.59
33506;BME280;19843;51.040;13.782;2023-01-28T04:52:31;101288.44;;;0.07;88.66
33506;BME280;19843;51.040;13.782;2023-01-28T04:54:58;101293.53;;;0.24;88.42
33506;BME280;19843;51.040;13.782;2023-01-28T04:57:28;101299.81;;;0.12;88.00
33506;BME280;19843;51.040;13.782;2023-01-28T04:59:56;101297.88;;;0.28;87.79
33506;BME280;19843;51.040;13.782;2023-01-28T05:02:23;101298.81;;;0.23;87.80
33506;BME280;19843;51.040;13.782;2023-01-28T05:04:51;101312.22;;;0.03;87.92
33506;BME280;19843;51.040;13.782;2023-01-28T05:07:18;101313.00;;;0.14;87.44
33506;BME280;19843;51.040;13.782;2023-01-28T05:09:46;101316.63;;;0.01;87.78
33506;BME280;19843;51.040;13.782;2023-01-28T05:12:13;101317.41;;;0.12;86.93
33506;BME280;19843;51.040;13.782;2023-01-28T05:14:42;101324.53;;;-0.01;85.56
33506;BME280;19843;51.040;13.782;2023-01-28T05:17:09;101329.03;;;-0.14;85.27
33506;BME280;19843;51.040;13.782;2023-01-28T05:19:37;101325.59;;;-0.25;86.07
33506;BME280;19843;51.040;13.782;2023-01-28T05:22:04;101322.84;;;-0.07;86.24
33506;BME280;19843;51.040;13.782;2023-01-28T05:24:31;101324.50;;;0.04;86.15
33506;BME280;19843;51.040;13.782;2023-01-28T05:26:59;101320.09;;;0.04;86.28
33506;BME280;19843;51.040;13.782;2023-01-28T05:29:27;101334.06;;;0.15;85.96
33506;BME280;19843;51.040;13.782;2023-01-28T05:31:55;101337.50;;;0.22;84.97
33506;BME280;19843;51.040;13.782;2023-01-28T05:34:23;101338.28;;;0.32;84.86
33506;BME280;19843;51.040;13.782;2023-01-28T05:36:50;101341.88;;;0.26;85.19
33506;BME280;19843;51.040;13.782;2023-01-28T05:39:18;101342.94;;;0.02;83.81
33506;BME280;19843;51.040;13.782;2023-01-28T05:41:46;101346.41;;;0.12;83.23
33506;BME280;19843;51.040;13.782;2023-01-28T05:44:13;101356.41;;;-0.29;84.13
33506;BME280;19843;51.040;13.782;2023-01-28T05:46:40;101354.44;;;-0.04;85.07
33506;BME280;19843;51.040;13.782;2023-01-28T05:49:12;101356.19;;;-0.01;83.39
33506;BME280;19843;51.040;13.782;2023-01-28T05:51:39;101349.31;;;-0.25;82.90
33506;BME280;19843;51.040;13.782;2023-01-28T05:54:07;101361.59;;;-0.18;83.38
33506;BME280;19843;51.040;13.782;2023-01-28T05:56:35;101353.66;;;-0.15;83.55
33506;BME280;19843;51.040;13.782;2023-01-28T05:59:03;101363.50;;;-0.40;82.98
33506;BME280;19843;51.040;13.782;2023-01-28T06:01:30;101371.31;;;-0.28;83.06
33506;BME280;19843;51.040;13.782;2023-01-28T06:03:58;101373.19;;;-0.48;84.22
33506;BME280;19843;51.040;13.782;2023-01-28T06:06:27;101370.59;;;-0.50;84.22
33506;BME280;19843;51.040;13.782;2023-01-28T06:08:54;101375.88;;;-0.51;84.13
33506;BME280;19843;51.040;13.782;2023-01-28T06:11:22;101381.09;;;-0.45;83.60
33506;BME280;19843;51.040;13.782;2023-01-28T06:13:49;101394.28;;;-0.48;83.32
33506;BME280;19843;51.040;13.782;2023-01-28T06:16:16;101391.69;;;-0.51;82.83
33506;BME280;19843;51.040;13.782;2023-01-28T06:18:44;101389.91;;;-0.52;82.73
33506;BME280;19843;51.040;13.782;2023-01-28T06:21:11;101401.25;;;-0.38;82.46
33506;BME280;19843;51.040;13.782;2023-01-28T06:23:40;101404.75;;;-0.39;81.45
33506;BME280;19843;51.040;13.782;2023-01-28T06:26:07;101402.22;;;-0.51;81.17
33506;BME280;19843;51.040;13.782;2023-01-28T06:28:34;101409.25;;;-0.59;81.05
33506;BME280;19843;51.040;13.782;2023-01-28T06:31:02;101413.66;;;-0.58;81.78
33506;BME280;19843;51.040;13.782;2023-01-28T06:33:30;101417.25;;;-0.70;81.83
33506;BME280;19843;51.040;13.782;2023-01-28T06:35:57;101414.59;;;-0.73;82.11
33506;BME280;19843;51.040;13.782;2023-01-28T06:38:25;101427.69;;;-0.55;80.64
33506;BME280;19843;51.040;13.782;2023-01-28T06:40:53;101433.00;;;-0.61;82.10
33506;BME280;19843;51.040;13.782;2023-01-28T06:43:21;101429.50;;;-0.63;81.76
33506;BME280;19843;51.040;13.782;2023-01-28T06:45:52;101427.63;;;-0.41;81.62
33506;BME280;19843;51.040;13.782;2023-01-28T06:48:20;101433.69;;;-0.28;81.15
33506;BME280;19843;51.040;13.782;2023-01-28T06:50:48;101429.44;;;-0.48;80.63
33506;BME280;19843;51.040;13.782;2023-01-28T06:53:16;101441.66;;;-0.39;80.41
33506;BME280;19843;51.040;13.782;2023-01-28T06:55:44;101433.91;;;-0.65;79.52
33506;BME280;19843;51.040;13.782;2023-01-28T06:58:13;101438.25;;;-0.59;79.48
33506;BME280;19843;51.040;13.782;2023-01-28T07:00:40;101443.53;;;-0.59;80.07
33506;BME280;19843;51.040;13.782;2023-01-28T07:03:07;101451.31;;;-0.36;80.10
33506;BME280;19843;51.040;13.782;2023-01-28T07:05:35;101440.88;;;-0.56;78.52
33506;BME280;19843;51.040;13.782;2023-01-28T07:08:03;101452.34;;;-0.70;78.96
33506;BME280;19843;51.040;13.782;2023-01-28T07:10:30;101454.97;;;-0.59;77.86
33506;BME280;19843;51.040;13.782;2023-01-28T07:12:57;101448.72;;;-0.46;78.37
33506;BME280;19843;51.040;13.782;2023-01-28T07:15:26;101452.19;;;-0.39;77.54
33506;BME280;19843;51.040;13.782;2023-01-28T07:17:54;101448.66;;;-0.30;78.58
33506;BME280;19843;51.040;13.782;2023-01-28T07:20:21;101449.50;;;-0.28;79.55
33506;BME280;19843;51.040;13.782;2023-01-28T07:22:48;101445.94;;;-0.16;79.44
33506;BME280;19843;51.040;13.782;2023-01-28T07:25:16;101455.56;;;-0.12;79.00
33506;BME280;19843;51.040;13.782;2023-01-28T07:27:47;101456.44;;;-0.09;79.05
33506;BME280;19843;51.040;13.782;2023-01-28T07:30:16;101458.19;;;-0.06;77.55
33506;BME280;19843;51.040;13.782;2023-01-28T07:32:46;101463.56;;;-0.25;76.72
33506;BME280;19843;51.040;13.782;2023-01-28T07:35:13;101460.09;;;-0.39;76.87
33506;BME280;19843;51.040;13.782;2023-01-28T07:37:41;101470.59;;;-0.30;76.89
33506;BME280;19843;51.040;13.782;2023-01-28T07:40:09;101461.06;;;-0.49;76.32
33506;BME280;19843;51.040;13.782;2023-01-28T07:42:37;101459.31;;;-0.55;75.78
33506;BME280;19843;51.040;13.782;2023-01-28T07:45:06;101460.97;;;-0.37;75.50
33506;BME280;19843;51.040;13.782;2023-01-28T07:47:33;101464.41;;;-0.21;76.11
33506;BME280;19843;51.040;13.782;2023-01-28T07:50:02;101463.63;;;-0.35;76.32
33506;BME280;19843;51.040;13.782;2023-01-28T07:52:30;101459.31;;;-0.58;74.34
33506;BME280;19843;51.040;13.782;2023-01-28T07:55:04;101463.75;;;-0.63;73.61
33506;BME280;19843;51.040;13.782;2023-01-28T07:57:31;101464.56;;;-0.55;74.54
33506;BME280;19843;51.040;13.782;2023-01-28T07:59:58;101467.16;;;-0.38;74.66
33506;BME280;19843;51.040;13.782;2023-01-28T08:02:26;101467.13;;;-0.36;75.10
33506;BME280;19843;51.040;13.782;2023-01-28T08:04:54;101463.69;;;-0.55;73.25
33506;BME280;19843;51.040;13.782;2023-01-28T08:07:26;101474.13;;;-0.25;73.76
33506;BME280;19843;51.040;13.782;2023-01-28T08:09:54;101469.63;;;-0.10;74.29
33506;BME280;19843;51.040;13.782;2023-01-28T08:12:21;101477.53;;;-0.10;71.76
33506;BME280;19843;51.040;13.782;2023-01-28T08:14:49;101480.16;;;-0.10;71.36
33506;BME280;19843;51.040;13.782;2023-01-28T08:17:16;101478.34;;;-0.01;71.45
33506;BME280;19843;51.040;13.782;2023-01-28T08:19:44;101472.22;;;-0.06;71.08
33506;BME280;19843;51.040;13.782;2023-01-28T08:22:11;101478.38;;;-0.02;70.91
33506;BME280;19843;51.040;13.782;2023-01-28T08:24:40;101473.97;;;0.00;71.31
33506;BME280;19843;51.040;13.782;2023-01-28T08:27:07;101477.50;;;-0.06;70.47
33506;BME280;19843;51.040;13.782;2023-01-28T08:29:35;101473.94;;;0.02;70.43
33506;BME280;19843;51.040;13.782;2023-01-28T08:32:02;101478.38;;;-0.05;70.89
33506;BME280;19843;51.040;13.782;2023-01-28T08:34:30;101475.72;;;-0.01;71.24
33506;BME280;19843;51.040;13.782;2023-01-28T08:36:57;101468.69;;;-0.02;69.49
33506;BME280;19843;51.040;13.782;2023-01-28T08:39:26;101471.28;;;0.06;70.21
33506;BME280;19843;51.040;13.782;2023-01-28T08:41:54;101482.63;;;0.16;71.19
33506;BME280;19843;51.040;13.782;2023-01-28T08:44:22;101485.19;;;0.27;70.41
33506;BME280;19843;51.040;13.782;2023-01-28T08:46:49;101486.13;;;0.21;70.72
33506;BME280;19843;51.040;13.782;2023-01-28T08:49:16;101489.63;;;0.23;70.22
33506;BME280;19843;51.040;13.782;2023-01-28T08:51:44;101494.03;;;0.19;71.21
33506;BME280;19843;51.040;13.782;2023-01-28T08:54:11;101488.00;;;0.04;71.01
33506;BME280;19843;51.040;13.782;2023-01-28T08:56:39;101487.03;;;0.17;70.14
33506;BME280;19843;51.040;13.782;2023-01-28T08:59:09;101494.06;;;0.16;70.90
33506;BME280;19843;51.040;13.782;2023-01-28T09:01:36;101502.78;;;0.25;70.27
33506;BME280;19843;51.040;13.782;2023-01-28T09:04:04;101504.56;;;0.23;69.03
33506;BME280;19843;51.040;13.782;2023-01-28T09:06:32;101499.22;;;0.35;68.49
33506;BME280;19843;51.040;13.782;2023-01-28T09:09:00;101505.44;;;0.28;68.72
33506;BME280;19843;51.040;13.782;2023-01-28T09:11:28;101509.91;;;0.15;68.49
33506;BME280;19843;51.040;13.782;2023-01-28T09:13:56;101513.53;;;0.00;69.49
33506;BME280;19843;51.040;13.782;2023-01-28T09:16:25;101503.94;;;-0.15;70.76
33506;BME280;19843;51.040;13.782;2023-01-28T09:18:52;101506.53;;;-0.12;71.84
33506;BME280;19843;51.040;13.782;2023-01-28T09:21:20;101502.97;;;-0.03;70.89
33506;BME280;19843;51.040;13.782;2023-01-28T09:23:47;101504.72;;;0.01;71.03
33506;BME280;19843;51.040;13.782;2023-01-28T09:26:15;101514.38;;;0.04;70.48
33506;BME280;19843;51.040;13.782;2023-01-28T09:28:42;101513.47;;;0.06;70.20
33506;BME280;19843;51.040;13.782;2023-01-28T09:31:11;101521.25;;;0.26;70.52
33506;BME280;19843;51.040;13.782;2023-01-28T09:33:40;101517.75;;;0.24;70.04
33506;BME280;19843;51.040;13.782;2023-01-28T09:36:09;101525.69;;;0.19;70.70
33506;BME280;19843;51.040;13.782;2023-01-28T09:38:37;101517.88;;;0.04;70.82
33506;BME280;19843;51.040;13.782;2023-01-28T09:41:18;101511.72;;;0.02;70.89
33506;BME280;19843;51.040;13.782;2023-01-28T09:44:02;101508.06;;;0.28;69.18
33506;BME280;19843;51.040;13.782;2023-01-28T09:46:33;101512.41;;;0.32;69.07
33506;BME280;19843;51.040;13.782;2023-01-28T09:49:13;101506.31;;;0.27;69.74
33506;BME280;19843;51.040;13.782;2023-01-28T09:51:47;101506.31;;;0.28;71.02
33506;BME280;19843;51.040;13.782;2023-01-28T09:54:24;101520.34;;;0.32;69.70
33506;BME280;19843;51.040;13.782;2023-01-28T09:56:57;101521.38;;;0.09;71.00
33506;BME280;19843;51.040;13.782;2023-01-28T09:59:32;101514.28;;;0.17;70.43
33506;BME280;19843;51.040;13.782;2023-01-28T10:02:05;101518.56;;;0.34;69.16
33506;BME280;19843;51.040;13.782;2023-01-28T10:04:57;101521.25;;;0.25;68.66
33506;BME280;19843;51.040;13.782;2023-01-28T10:07:33;101522.19;;;0.17;67.83
33506;BME280;19843;51.040;13.782;2023-01-28T10:10:09;101521.38;;;0.08;67.95
33506;BME280;19843;51.040;13.782;2023-01-28T10:13:12;101526.69;;;0.03;67.66
33506;BME280;19843;51.040;13.782;2023-01-28T10:15:54;101536.31;;;0.10;68.54
33506;BME280;19843;51.040;13.782;2023-01-28T10:18:31;101525.69;;;0.19;66.63
33506;BME280;19843;51.040;13.782;2023-01-28T10:21:06;101528.34;;;0.18;67.70
33506;BME280;19843;51.040;13.782;2023-01-28T10:23:43;101524.84;;;0.16;66.95
33506;BME280;19843;51.040;13.782;2023-01-28T10:26:19;101528.41;;;0.04;65.35
33506;BME280;19843;51.040;13.782;2023-01-28T10:28:52;101526.72;;;-0.02;65.08
33506;BME280;19843;51.040;13.782;2023-01-28T10:31:21;101528.44;;;-0.01;65.49
33506;BME280;19843;51.040;13.782;2023-01-28T10:33:49;101539.94;;;-0.06;65.87
33506;BME280;19843;51.040;13.782;2023-01-28T10:36:18;101532.94;;;-0.13;64.86
33506;BME280;19843;51.040;13.782;2023-01-28T10:38:45;101539.13;;;-0.27;64.56
33506;BME280;19843;51.040;13.782;2023-01-28T10:41:17;101546.06;;;-0.06;65.89
33506;BME280;19843;51.040;13.782;2023-01-28T10:43:47;101541.56;;;0.13;64.57
33506;BME280;19843;51.040;13.782;2023-01-28T10:46:18;101536.22;;;0.23;64.15
33506;BME280;19843;51.040;13.782;2023-01-28T10:48:54;101550.34;;;0.17;66.06
33506;BME280;19843;51.040;13.782;2023-01-28T10:51:35;101559.94;;;0.30;64.97
33506;BME280;19843;51.040;13.782;2023-01-28T10:54:03;101549.44;;;0.19;64.24
33506;BME280;19843;51.040;13.782;2023-01-28T10:56:43;101556.59;;;0.01;64.76
33506;BME280;19843;51.040;13.782;2023-01-28T10:59:18;101556.59;;;0.01;65.70
33506;BME280;19843;51.040;13.782;2023-01-28T11:01:49;101557.31;;;0.23;66.16
33506;BME280;19843;51.040;13.782;2023-01-28T11:04:21;101551.25;;;0.14;67.07
33506;BME280;19843;51.040;13.782;2023-01-28T11:06:56;101552.09;;;0.19;65.31
33506;BME280;19843;51.040;13.782;2023-01-28T11:09:27;101550.31;;;0.22;65.12
33506;BME280;19843;51.040;13.782;2023-01-28T11:11:54;101548.69;;;-0.01;64.71
33506;BME280;19843;51.040;13.782;2023-01-28T11:14:23;101547.84;;;-0.06;65.28
33506;BME280;19843;51.040;13.782;2023-01-28T11:16:53;101545.19;;;0.00;65.49
33506;BME280;19843;51.040;13.782;2023-01-28T11:19:28;101555.66;;;0.06;66.06
33506;BME280;19843;51.040;13.782;2023-01-28T11:21:59;101548.59;;;0.14;64.94
33506;BME280;19843;51.040;13.782;2023-01-28T11:24:29;101546.84;;;0.13;64.35
33506;BME280;19843;51.040;13.782;2023-01-28T11:27:10;101547.75;;;0.06;65.46
33506;BME280;19843;51.040;13.782;2023-01-28T11:29:39;101549.41;;;0.23;65.94
33506;BME280;19843;51.040;13.782;2023-01-28T11:32:15;101545.06;;;0.18;64.75
33506;BME280;19843;51.040;13.782;2023-01-28T11:34:48;101545.06;;;0.15;65.33
33506;BME280;19843;51.040;13.782;2023-01-28T11:37:20;101538.16;;;-0.04;65.88
33506;BME280;19843;51.040;13.782;2023-01-28T11:39:48;101539.03;;;-0.04;66.57
33506;BME280;19843;51.040;13.782;2023-01-28T11:42:26;101531.97;;;0.02;66.51
33506;BME280;19843;51.040;13.782;2023-01-28T11:44:54;101527.53;;;0.08;65.49
33506;BME280;19843;51.040;13.782;2023-01-28T11:47:28;101533.63;;;0.18;65.40
33506;BME280;19843;51.040;13.782;2023-01-28T11:50:11;101523.91;;;0.28;66.02
33506;BME280;19843;51.040;13.782;2023-01-28T11:52:54;101525.63;;;0.29;64.90
33506;BME280;19843;51.040;13.782;2023-01-28T11:55:53;101517.75;;;0.24;65.62
33506;BME280;19843;51.040;13.782;2023-01-28T11:58:33;101529.09;;;0.40;65.77
33506;BME280;19843;51.040;13.782;2023-01-28T12:01:09;101524.03;;;0.08;65.13
33506;BME280;19843;51.040;13.782;2023-01-28T12:03:45;101527.53;;;0.10;65.06
33506;BME280;19843;51.040;13.782;2023-01-28T12:06:23;101516.94;;;0.14;65.46
33506;BME280;19843;51.040;13.782;2023-01-28T12:09:03;101519.63;;;0.10;65.64
33506;BME280;19843;51.040;13.782;2023-01-28T12:11:43;101521.34;;;0.11;65.52
33506;BME280;19843;51.040;13.782;2023-01-28T12:14:45;101516.91;;;0.17;65.95
33506;BME280;19843;51.040;13.782;2023-01-28T12:17:26;101509.91;;;0.13;65.31
33506;BME280;19843;51.040;13.782;2023-01-28T12:20:06;101523.22;;;-0.07;65.66
33506;BME280;19843;51.040;13.782;2023-01-28T12:22:58;101516.13;;;0.02;66.90
33506;BME280;19843;51.040;13.782;2023-01-28T12:25:41;101505.56;;;0.08;67.29
33506;BME280;19843;51.040;13.782;2023-01-28T12:28:18;101512.66;;;-0.04;65.80
33506;BME280;19843;51.040;13.782;2023-01-28T12:31:03;101509.09;;;0.05;65.26
33506;BME280;19843;51.040;13.782;2023-01-28T12:33:57;101509.94;;;0.09;65.15
33506;BME280;19843;51.040;13.782;2023-01-28T12:37:04;101502.03;;;0.12;65.60
33506;BME280;19843;51.040;13.782;2023-01-28T12:40:07;101508.09;;;0.22;65.87
33506;BME280;19843;51.040;13.782;2023-01-28T12:42:45;101504.63;;;0.15;65.60
33506;BME280;19843;51.040;13.782;2023-01-28T12:45:16;101501.94;;;0.24;65.98
33506;BME280;19843;51.040;13.782;2023-01-28T12:47:50;101497.63;;;0.14;65.40
33506;BME280;19843;51.040;13.782;2023-01-28T12:50:23;101498.53;;;0.10;66.38
33506;BME280;19843;51.040;13.782;2023-01-28T12:52:54;101489.75;;;0.05;65.37
33506;BME280;19843;51.040;13.782;2023-01-28T12:55:34;101495.88;;;0.08;65.37
33506;BME280;19843;51.040;13.782;2023-01-28T12:58:12;101502.06;;;0.07;65.47
33506;BME280;19843;51.040;13.782;2023-01-28T13:00:45;101503.81;;;0.04;64.64
33506;BME280;19843;51.040;13.782;2023-01-28T13:03:19;101498.53;;;0.10;64.85
33506;BME280;19843;51.040;13.782;2023-01-28T13:05:49;101499.38;;;0.10;64.43
33506;BME280;19843;51.040;13.782;2023-01-28T13:08:22;101490.59;;;0.08;64.88